| Date | Time | Temp. (oF) | Dew Point (oF) | Rel. Hum. (%) | Press. (in.) | Wind Dir. | Wind Speed (mph) | Hourly Rainfall (in.) |
|
|---|---|---|---|---|---|---|---|---|---|
| 1 | 05/20 | 00:00 | 55 | 42 | 62 | 30.41 | WSW | 0 | 0.00 |
| 2 | 05/19 | 23:00 | 58 | 41 | 54 | 30.39 | SW | 3 | 0.00 |
| 3 | 05/19 | 22:00 | 58 | 41 | 55 | 30.38 | SSW | 2 | 0.00 |
| 4 | 05/19 | 21:00 | 61 | 41 | 48 | 30.36 | SSW | 1 | 0.00 |
| 5 | 05/19 | 20:00 | 66 | 40 | 39 | 30.35 | SSW | 1 | 0.00 |
| 6 | 05/19 | 19:00 | 72 | 41 | 34 | 30.34 | S | 1 | 0.00 |
| 7 | 05/19 | 18:00 | 70 | 39 | 33 | 30.35 | SW | 1 | 0.00 |
| 8 | 05/19 | 17:00 | 71 | 36 | 29 | 30.36 | NNE | 0 | 0.00 |
| 9 | 05/19 | 16:00 | 70 | 35 | 29 | 30.37 | SW | 7 | 0.00 |
| 10 | 05/19 | 15:00 | 68 | 37 | 33 | 30.40 | W | 3 | 0.00 |
| 11 | 05/19 | 14:00 | 67 | 37 | 34 | 30.42 | SSW | 4 | 0.00 |
| 12 | 05/19 | 13:00 | 65 | 37 | 36 | 30.44 | NNW | 4 | 0.00 |
| 13 | 05/19 | 12:00 | 63 | 39 | 42 | 30.45 | SW | 2 | 0.00 |
| 14 | 05/19 | 11:00 | 61 | 38 | 44 | 30.46 | NE | 2 | 0.00 |
| 15 | 05/19 | 10:00 | 57 | 38 | 51 | 30.47 | NE | 4 | 0.00 |
| 16 | 05/19 | 09:00 | 54 | 44 | 69 | 30.48 | NW | 3 | 0.00 |
| 17 | 05/19 | 08:00 | 46 | 44 | 96 | 30.47 | SW | 1 | 0.00 |
| 18 | 05/19 | 07:00 | 38 | 37 | 97 | 30.46 | ESE | 0 | 0.00 |
| 19 | 05/19 | 06:00 | 37 | 35 | 95 | 30.44 | ESE | 0 | 0.00 |
| 20 | 05/19 | 05:00 | 37 | 35 | 94 | 30.41 | ESE | 0 | 0.00 |
| 21 | 05/19 | 04:00 | 38 | 35 | 92 | 30.39 | ESE | 0 | 0.00 |
| 22 | 05/19 | 03:00 | 39 | 36 | 90 | 30.38 | ESE | 0 | 0.00 |
| 23 | 05/19 | 02:00 | 41 | 37 | 86 | 30.37 | ESE | 0 | 0.00 |
| 24 | 05/19 | 01:00 | 42 | 35 | 79 | 30.37 | ESE | 0 | 0.00 |